MSC England — A8VG3 — position and weather

sailwx.info

Track history (hours):
 
Tides and Currents Weather Stations Pressure Air Temp Water Temp Dewpoint Dewpoint Depression Visibility Wind Speed Wind Dir Waves Ship Positions

MSC England

Last reported at 2017-Dec-15 19:40 UTC. Time now 2017-Dec-16 15:12 UTC.
Position N 35°59' W 005°31'.

Length 258 m; draft 10.8 m.

Type: Ship (hazmat cat A). MMSI: 636091996.

Date/timePositionNaut miles runAvg speedWind from/ knotsBaromVisibWave heightAir tempDewpointWater temp
2017-Dec-15 19:40N 35°59' W 005°31'210.9
2017-Dec-15 19:28N 35°59' W 005°29'1010.0
2017-Dec-15 18:27N 36°01' W 005°17'22412.7
2017-Dec-15 00:45N 37°19' W 000°54'614.1
2017-Dec-15 00:20N 37°23' W 000°49'252 5.3
2017-Dec-13 00:42N 41°01' E 001°55'418.6
2017-Dec-13 00:30N 41°04' E 001°58'918.3
2017-Dec-13 00:00N 41°11' E 002°06'179 6.8
2017-Dec-11 21:47N 43°15' E 004°60'414.2
2017-Dec-11 21:30N 43°19' E 004°59'4 9.1
2017-Dec-11 21:00N 43°23' E 004°57'5 9.8
2017-Dec-11 20:30N 43°25' E 004°51'0 0.9
2017-Dec-11 19:59N 43°25' E 004°50'0 0.0
2017-Dec-11 19:26N 43°25' E 004°50'0 0.0
2017-Dec-11 18:59N 43°25' E 004°50'0 0.0
2017-Dec-11 18:29N 43°25' E 004°50'0 0.0
2017-Dec-11 17:56N 43°25' E 004°50'0 0.0
2017-Dec-11 17:26N 43°25' E 004°50'0 0.0
2017-Dec-11 16:59N 43°25' E 004°50'0 0.0
2017-Dec-11 16:29N 43°25' E 004°50'0 0.0
2017-Dec-11 15:59N 43°25' E 004°50'0 0.0
2017-Dec-11 15:29N 43°25' E 004°50'0 0.0
2017-Dec-11 14:56N 43°25' E 004°50'0 0.0
2017-Dec-11 14:29N 43°25' E 004°50'0 0.0
2017-Dec-11 13:59N 43°25' E 004°50'0 0.0
2017-Dec-11 13:29N 43°25' E 004°50'0 0.0
2017-Dec-11 12:59N 43°25' E 004°50'0 0.0
2017-Dec-11 12:29N 43°25' E 004°50'0 0.0
2017-Dec-11 11:59N 43°25' E 004°50'0 0.0
2017-Dec-11 11:29N 43°25' E 004°50'0 0.0
2017-Dec-11 10:59N 43°25' E 004°50'0 0.0
2017-Dec-11 10:29N 43°25' E 004°50'0 0.0
2017-Dec-11 09:59N 43°25' E 004°50'0 0.0
2017-Dec-11 09:28N 43°25' E 004°50'0 0.2
2017-Dec-11 09:00N 43°25' E 004°50'2 4.0
2017-Dec-11 08:30N 43°24' E 004°53'510.8
2017-Dec-11 08:01N 43°21' E 004°59'5 9.8
2017-Dec-11 07:30N 43°16' E 005°01'1812.0
2017-Dec-11 06:00N 43°00' E 005°12'6210.3 270 / 22990.510.8 15.0 4.212.0
2017-Dec-11 00:00N 42°54' E 006°36'2614.6 220 / 32998.010.8 15.013.2
2017-Dec-10 22:12N 43°02' E 007°10'412.5
2017-Dec-10 21:53N 43°04' E 007°15'2124.1
2017-Dec-10 21:00N 43°12' E 007°42'18 6.2 220 / 381000.3 5.4 14.5 4.914.0
2017-Dec-10 18:00N 43°18' E 008°06'4018.9 300 / 81002.9 2.2 14.9 1.014.0
2017-Dec-10 15:52N 43°40' E 008°53'613.9
2017-Dec-10 15:27N 43°43' E 008°60'713.9
2017-Dec-10 14:57N 43°46' E 009°08'613.7
2017-Dec-10 14:30N 43°48' E 009°16'713.5
2017-Dec-10 14:00N 43°51' E 009°24'713.4
2017-Dec-10 13:30N 43°54' E 009°33'713.8
2017-Dec-10 13:00N 43°57' E 009°42'714.2
2017-Dec-10 12:30N 43°60' E 009°51'510.9
2017-Dec-10 12:00N 44°05' E 009°51'2 3.0
2017-Dec-10 11:30N 44°07' E 009°50'0 0.0
2017-Dec-10 11:00N 44°07' E 009°50'0 0.0
2017-Dec-10 10:30N 44°07' E 009°50'0 0.0
2017-Dec-10 10:00N 44°07' E 009°50'0 0.0
2017-Dec-10 09:30N 44°07' E 009°50'0 0.0
2017-Dec-10 09:00N 44°07' E 009°50'0 0.0
2017-Dec-10 08:30N 44°07' E 009°50'0 0.0
2017-Dec-10 08:00N 44°07' E 009°50'0 0.0
2017-Dec-10 07:30N 44°07' E 009°50'0 0.0
2017-Dec-10 07:00N 44°07' E 009°50'0 0.0
2017-Dec-10 06:30N 44°07' E 009°50'0 0.0
2017-Dec-10 06:00N 44°07' E 009°50'0 0.0
2017-Dec-10 05:30N 44°07' E 009°50'0 0.0
2017-Dec-10 04:59N 44°07' E 009°50'0 0.0
2017-Dec-10 04:29N 44°07' E 009°50'0 0.0
2017-Dec-10 03:59N 44°07' E 009°50'0 0.0
2017-Dec-10 03:29N 44°07' E 009°50'0 0.0
2017-Dec-10 02:59N 44°07' E 009°50'0 0.0
2017-Dec-10 02:26N 44°07' E 009°50'0 0.0
2017-Dec-10 01:59N 44°07' E 009°50'0 0.0
2017-Dec-10 01:29N 44°07' E 009°50'0 0.0
2017-Dec-10 00:59N 44°07' E 009°50'0 0.0
2017-Dec-10 00:23N 44°07' E 009°50'0 0.0
2017-Dec-09 23:59N 44°07' E 009°50'0 0.0
2017-Dec-09 23:29N 44°07' E 009°50'0 0.0
2017-Dec-09 22:59N 44°07' E 009°50'0 0.0
2017-Dec-09 22:29N 44°07' E 009°50'0 0.0
2017-Dec-09 21:56N 44°07' E 009°50'0 0.0
2017-Dec-09 21:29N 44°07' E 009°50'0 0.0
2017-Dec-09 20:56N 44°07' E 009°50'0 0.0
2017-Dec-09 20:29N 44°07' E 009°50'0 0.0
2017-Dec-09 19:59N 44°07' E 009°50'0 0.0
2017-Dec-09 19:29N 44°07' E 009°50'0 0.0
2017-Dec-09 18:56N 44°07' E 009°50'0 0.0
2017-Dec-09 18:23N 44°07' E 009°50'0 0.0
2017-Dec-09 17:59N 44°07' E 009°50'0 0.0
2017-Dec-09 17:29N 44°07' E 009°50'0 0.0
2017-Dec-09 16:56N 44°07' E 009°50'0 0.0
2017-Dec-09 16:29N 44°07' E 009°50'0 0.0
2017-Dec-09 15:56N 44°07' E 009°50'0 0.0
2017-Dec-09 15:26N 44°07' E 009°50'0 0.0
2017-Dec-09 14:59N 44°07' E 009°50'0 0.0
2017-Dec-09 14:29N 44°07' E 009°50'0 0.0
2017-Dec-09 13:59N 44°07' E 009°50'0 0.0
2017-Dec-09 13:29N 44°07' E 009°50'0 0.0
2017-Dec-09 12:59N 44°07' E 009°50'0 0.0
2017-Dec-09 12:23N 44°07' E 009°50'0 0.0
2017-Dec-09 11:50N 44°07' E 009°50'0 0.0
2017-Dec-09 11:26N 44°07' E 009°50'0 0.0
2017-Dec-09 10:53N 44°07' E 009°50'0 0.0
2017-Dec-09 10:26N 44°07' E 009°50'0 0.0
2017-Dec-09 09:59N 44°07' E 009°50'0 0.0
2017-Dec-09 09:29N 44°07' E 009°50'0 0.0
2017-Dec-09 08:59N 44°07' E 009°50'0 0.0
2017-Dec-09 08:29N 44°07' E 009°50'0 0.0
2017-Dec-09 07:56N 44°07' E 009°50'0 0.0
2017-Dec-09 07:26N 44°07' E 009°50'0 0.0
2017-Dec-09 06:56N 44°07' E 009°50'0 0.0
2017-Dec-09 06:29N 44°07' E 009°50'0 0.0
2017-Dec-09 05:59N 44°07' E 009°50'0 0.0
2017-Dec-09 05:29N 44°07' E 009°50'0 0.0
2017-Dec-09 04:56N 44°07' E 009°50'0 0.0
2017-Dec-09 04:29N 44°07' E 009°50'0 0.0
2017-Dec-09 03:59N 44°07' E 009°50'0 0.0
2017-Dec-09 03:26N 44°07' E 009°50'0 0.0
2017-Dec-09 02:59N 44°07' E 009°50'0 0.0
2017-Dec-09 02:26N 44°07' E 009°50'0 0.0
2017-Dec-09 01:50N 44°07' E 009°50'0 0.0
2017-Dec-09 01:28N 44°07' E 009°50'0 0.0
2017-Dec-09 00:58N 44°07' E 009°50'0 0.0
2017-Dec-09 00:28N 44°07' E 009°50'0 0.0
2017-Dec-08 23:58N 44°07' E 009°50'0 0.0
2017-Dec-08 23:28N 44°07' E 009°50'0 0.0
2017-Dec-08 22:55N 44°07' E 009°50'0 0.0
2017-Dec-08 22:28N 44°07' E 009°50'0 0.0
2017-Dec-08 21:58N 44°07' E 009°50'0 0.0
2017-Dec-08 21:28N 44°07' E 009°50'0 0.0
2017-Dec-08 20:55N 44°07' E 009°50'0 0.0
2017-Dec-08 20:28N 44°07' E 009°50'0 0.0
2017-Dec-08 19:58N 44°07' E 009°50'0 0.0
2017-Dec-08 19:25N 44°07' E 009°50'0 0.0
2017-Dec-08 18:49N 44°07' E 009°50'0 0.0
2017-Dec-08 18:22N 44°07' E 009°50'0 0.0
2017-Dec-08 17:58N 44°07' E 009°50'0 0.0
2017-Dec-08 17:16N 44°07' E 009°50'0 0.0
2017-Dec-08 16:52N 44°07' E 009°50'0 0.0
2017-Dec-08 16:25N 44°07' E 009°50'0 0.0
2017-Dec-08 15:49N 44°07' E 009°50'0 0.0
2017-Dec-08 15:28N 44°07' E 009°50'0 0.0
2017-Dec-08 14:55N 44°07' E 009°50'0 0.0
2017-Dec-08 14:25N 44°07' E 009°50'0 0.0
2017-Dec-08 13:58N 44°07' E 009°50'0 0.0
2017-Dec-08 13:25N 44°07' E 009°50'0 0.0
2017-Dec-08 12:58N 44°07' E 009°50'0 0.0
2017-Dec-08 12:28N 44°07' E 009°50'0 0.0
2017-Dec-08 11:58N 44°07' E 009°50'0 0.0
2017-Dec-08 11:30N 44°07' E 009°50'3 5.6
2017-Dec-08 11:00N 44°04' E 009°51'611.3
2017-Dec-08 10:30N 44°00' E 009°57'612.9
2017-Dec-08 10:01N 43°54' E 009°56'714.8
2017-Dec-08 09:31N 43°48' E 009°50'815.6
2017-Dec-08 09:00N 43°43' E 009°41'815.7
2017-Dec-08 08:30N 43°39' E 009°32'815.6
2017-Dec-08 08:01N 43°34' E 009°24'815.9
2017-Dec-08 07:31N 43°29' E 009°15'916.1
2017-Dec-08 06:56N 43°24' E 009°04'715.4
2017-Dec-08 06:29N 43°20' E 008°57'1327.0
2017-Dec-08 06:00N 43°12' E 008°42'440.3 140 / 101021.510.8 16.0 8.117.1
2017-Dec-08 05:53N 43°15' E 008°46'9716.4
2017-Dec-08 00:00N 42°24' E 006°54'   160 / 61027.010.8 17.013.5
Track history (hours):
 
Tides and Currents Weather Stations Pressure Air Temp Water Temp Dewpoint Dewpoint Depression Visibility Wind Speed Wind Dir Waves Ship Positions

MSC England

Last reported at 2017-Dec-15 19:40 UTC. Time now 2017-Dec-16 15:12 UTC.
Position N 35°59' W 005°31'.

Length 258 m; draft 10.8 m.

Type: Ship (hazmat cat A). MMSI: 636091996.

Date/timePositionNaut miles runAvg speedWind from/ knotsBaromVisibWave heightAir tempDewpointWater temp
2017-Dec-15 19:40N 35°59' W 005°31'210.9
2017-Dec-15 19:28N 35°59' W 005°29'1010.0
2017-Dec-15 18:27N 36°01' W 005°17'22412.7
2017-Dec-15 00:45N 37°19' W 000°54'614.1
2017-Dec-15 00:20N 37°23' W 000°49'252 5.3
2017-Dec-13 00:42N 41°01' E 001°55'418.6
2017-Dec-13 00:30N 41°04' E 001°58'918.3
2017-Dec-13 00:00N 41°11' E 002°06'179 6.8
2017-Dec-11 21:47N 43°15' E 004°60'414.2
2017-Dec-11 21:30N 43°19' E 004°59'4 9.1
2017-Dec-11 21:00N 43°23' E 004°57'5 9.8
2017-Dec-11 20:30N 43°25' E 004°51'0 0.9
2017-Dec-11 19:59N 43°25' E 004°50'0 0.0
2017-Dec-11 19:26N 43°25' E 004°50'0 0.0
2017-Dec-11 18:59N 43°25' E 004°50'0 0.0
2017-Dec-11 18:29N 43°25' E 004°50'0 0.0
2017-Dec-11 17:56N 43°25' E 004°50'0 0.0
2017-Dec-11 17:26N 43°25' E 004°50'0 0.0
2017-Dec-11 16:59N 43°25' E 004°50'0 0.0
2017-Dec-11 16:29N 43°25' E 004°50'0 0.0
2017-Dec-11 15:59N 43°25' E 004°50'0 0.0
2017-Dec-11 15:29N 43°25' E 004°50'0 0.0
2017-Dec-11 14:56N 43°25' E 004°50'0 0.0
2017-Dec-11 14:29N 43°25' E 004°50'0 0.0
2017-Dec-11 13:59N 43°25' E 004°50'0 0.0
2017-Dec-11 13:29N 43°25' E 004°50'0 0.0
2017-Dec-11 12:59N 43°25' E 004°50'0 0.0
2017-Dec-11 12:29N 43°25' E 004°50'0 0.0
2017-Dec-11 11:59N 43°25' E 004°50'0 0.0
2017-Dec-11 11:29N 43°25' E 004°50'0 0.0
2017-Dec-11 10:59N 43°25' E 004°50'0 0.0
2017-Dec-11 10:29N 43°25' E 004°50'0 0.0
2017-Dec-11 09:59N 43°25' E 004°50'0 0.0
2017-Dec-11 09:28N 43°25' E 004°50'0 0.2
2017-Dec-11 09:00N 43°25' E 004°50'2 4.0
2017-Dec-11 08:30N 43°24' E 004°53'510.8
2017-Dec-11 08:01N 43°21' E 004°59'5 9.8
2017-Dec-11 07:30N 43°16' E 005°01'1812.0
2017-Dec-11 06:00N 43°00' E 005°12'6210.3 270 / 22990.510.8 15.0 4.212.0
2017-Dec-11 00:00N 42°54' E 006°36'2614.6 220 / 32998.010.8 15.013.2
2017-Dec-10 22:12N 43°02' E 007°10'412.5
2017-Dec-10 21:53N 43°04' E 007°15'2124.1
2017-Dec-10 21:00N 43°12' E 007°42'18 6.2 220 / 381000.3 5.4 14.5 4.914.0
2017-Dec-10 18:00N 43°18' E 008°06'4018.9 300 / 81002.9 2.2 14.9 1.014.0
2017-Dec-10 15:52N 43°40' E 008°53'613.9
2017-Dec-10 15:27N 43°43' E 008°60'713.9
2017-Dec-10 14:57N 43°46' E 009°08'613.7
2017-Dec-10 14:30N 43°48' E 009°16'713.5
2017-Dec-10 14:00N 43°51' E 009°24'713.4
2017-Dec-10 13:30N 43°54' E 009°33'713.8
2017-Dec-10 13:00N 43°57' E 009°42'714.2
2017-Dec-10 12:30N 43°60' E 009°51'510.9
2017-Dec-10 12:00N 44°05' E 009°51'2 3.0
2017-Dec-10 11:30N 44°07' E 009°50'0 0.0
2017-Dec-10 11:00N 44°07' E 009°50'0 0.0
2017-Dec-10 10:30N 44°07' E 009°50'0 0.0
2017-Dec-10 10:00N 44°07' E 009°50'0 0.0
2017-Dec-10 09:30N 44°07' E 009°50'0 0.0
2017-Dec-10 09:00N 44°07' E 009°50'0 0.0
2017-Dec-10 08:30N 44°07' E 009°50'0 0.0
2017-Dec-10 08:00N 44°07' E 009°50'0 0.0
2017-Dec-10 07:30N 44°07' E 009°50'0 0.0
2017-Dec-10 07:00N 44°07' E 009°50'0 0.0
2017-Dec-10 06:30N 44°07' E 009°50'0 0.0
2017-Dec-10 06:00N 44°07' E 009°50'0 0.0
2017-Dec-10 05:30N 44°07' E 009°50'0 0.0
2017-Dec-10 04:59N 44°07' E 009°50'0 0.0
2017-Dec-10 04:29N 44°07' E 009°50'0 0.0
2017-Dec-10 03:59N 44°07' E 009°50'0 0.0
2017-Dec-10 03:29N 44°07' E 009°50'0 0.0
2017-Dec-10 02:59N 44°07' E 009°50'0 0.0
2017-Dec-10 02:26N 44°07' E 009°50'0 0.0
2017-Dec-10 01:59N 44°07' E 009°50'0 0.0
2017-Dec-10 01:29N 44°07' E 009°50'0 0.0
2017-Dec-10 00:59N 44°07' E 009°50'0 0.0
2017-Dec-10 00:23N 44°07' E 009°50'0 0.0
2017-Dec-09 23:59N 44°07' E 009°50'0 0.0
2017-Dec-09 23:29N 44°07' E 009°50'0 0.0
2017-Dec-09 22:59N 44°07' E 009°50'0 0.0
2017-Dec-09 22:29N 44°07' E 009°50'0 0.0
2017-Dec-09 21:56N 44°07' E 009°50'0 0.0
2017-Dec-09 21:29N 44°07' E 009°50'0 0.0
2017-Dec-09 20:56N 44°07' E 009°50'0 0.0
2017-Dec-09 20:29N 44°07' E 009°50'0 0.0
2017-Dec-09 19:59N 44°07' E 009°50'0 0.0
2017-Dec-09 19:29N 44°07' E 009°50'0 0.0
2017-Dec-09 18:56N 44°07' E 009°50'0 0.0
2017-Dec-09 18:23N 44°07' E 009°50'0 0.0
2017-Dec-09 17:59N 44°07' E 009°50'0 0.0
2017-Dec-09 17:29N 44°07' E 009°50'0 0.0
2017-Dec-09 16:56N 44°07' E 009°50'0 0.0
2017-Dec-09 16:29N 44°07' E 009°50'0 0.0
2017-Dec-09 15:56N 44°07' E 009°50'0 0.0
2017-Dec-09 15:26N 44°07' E 009°50'0 0.0
2017-Dec-09 14:59N 44°07' E 009°50'0 0.0
2017-Dec-09 14:29N 44°07' E 009°50'0 0.0
2017-Dec-09 13:59N 44°07' E 009°50'0 0.0
2017-Dec-09 13:29N 44°07' E 009°50'0 0.0
2017-Dec-09 12:59N 44°07' E 009°50'0 0.0
2017-Dec-09 12:23N 44°07' E 009°50'0 0.0
2017-Dec-09 11:50N 44°07' E 009°50'0 0.0
2017-Dec-09 11:26N 44°07' E 009°50'0 0.0
2017-Dec-09 10:53N 44°07' E 009°50'0 0.0
2017-Dec-09 10:26N 44°07' E 009°50'0 0.0
2017-Dec-09 09:59N 44°07' E 009°50'0 0.0
2017-Dec-09 09:29N 44°07' E 009°50'0 0.0
2017-Dec-09 08:59N 44°07' E 009°50'0 0.0
2017-Dec-09 08:29N 44°07' E 009°50'0 0.0
2017-Dec-09 07:56N 44°07' E 009°50'0 0.0
2017-Dec-09 07:26N 44°07' E 009°50'0 0.0
2017-Dec-09 06:56N 44°07' E 009°50'0 0.0
2017-Dec-09 06:29N 44°07' E 009°50'0 0.0
2017-Dec-09 05:59N 44°07' E 009°50'0 0.0
2017-Dec-09 05:29N 44°07' E 009°50'0 0.0
2017-Dec-09 04:56N 44°07' E 009°50'0 0.0
2017-Dec-09 04:29N 44°07' E 009°50'0 0.0
2017-Dec-09 03:59N 44°07' E 009°50'0 0.0
2017-Dec-09 03:26N 44°07' E 009°50'0 0.0
2017-Dec-09 02:59N 44°07' E 009°50'0 0.0
2017-Dec-09 02:26N 44°07' E 009°50'0 0.0
2017-Dec-09 01:50N 44°07' E 009°50'0 0.0
2017-Dec-09 01:28N 44°07' E 009°50'0 0.0
2017-Dec-09 00:58N 44°07' E 009°50'0 0.0
2017-Dec-09 00:28N 44°07' E 009°50'0 0.0
2017-Dec-08 23:58N 44°07' E 009°50'0 0.0
2017-Dec-08 23:28N 44°07' E 009°50'0 0.0
2017-Dec-08 22:55N 44°07' E 009°50'0 0.0
2017-Dec-08 22:28N 44°07' E 009°50'0 0.0
2017-Dec-08 21:58N 44°07' E 009°50'0 0.0
2017-Dec-08 21:28N 44°07' E 009°50'0 0.0
2017-Dec-08 20:55N 44°07' E 009°50'0 0.0
2017-Dec-08 20:28N 44°07' E 009°50'0 0.0
2017-Dec-08 19:58N 44°07' E 009°50'0 0.0
2017-Dec-08 19:25N 44°07' E 009°50'0 0.0
2017-Dec-08 18:49N 44°07' E 009°50'0 0.0
2017-Dec-08 18:22N 44°07' E 009°50'0 0.0
2017-Dec-08 17:58N 44°07' E 009°50'0 0.0
2017-Dec-08 17:16N 44°07' E 009°50'0 0.0
2017-Dec-08 16:52N 44°07' E 009°50'0 0.0
2017-Dec-08 16:25N 44°07' E 009°50'0 0.0
2017-Dec-08 15:49N 44°07' E 009°50'0 0.0
2017-Dec-08 15:28N 44°07' E 009°50'0 0.0
2017-Dec-08 14:55N 44°07' E 009°50'0 0.0
2017-Dec-08 14:25N 44°07' E 009°50'0 0.0
2017-Dec-08 13:58N 44°07' E 009°50'0 0.0
2017-Dec-08 13:25N 44°07' E 009°50'0 0.0
2017-Dec-08 12:58N 44°07' E 009°50'0 0.0
2017-Dec-08 12:28N 44°07' E 009°50'0 0.0
2017-Dec-08 11:58N 44°07' E 009°50'0 0.0
2017-Dec-08 11:30N 44°07' E 009°50'3 5.6
2017-Dec-08 11:00N 44°04' E 009°51'611.3
2017-Dec-08 10:30N 44°00' E 009°57'612.9
2017-Dec-08 10:01N 43°54' E 009°56'714.8
2017-Dec-08 09:31N 43°48' E 009°50'815.6
2017-Dec-08 09:00N 43°43' E 009°41'815.7
2017-Dec-08 08:30N 43°39' E 009°32'815.6
2017-Dec-08 08:01N 43°34' E 009°24'815.9
2017-Dec-08 07:31N 43°29' E 009°15'916.1
2017-Dec-08 06:56N 43°24' E 009°04'715.4
2017-Dec-08 06:29N 43°20' E 008°57'1327.0
2017-Dec-08 06:00N 43°12' E 008°42'440.3 140 / 101021.510.8 16.0 8.117.1
2017-Dec-08 05:53N 43°15' E 008°46'9716.4
2017-Dec-08 00:00N 42°24' E 006°54'   160 / 61027.010.8 17.013.5

Dump ship's entire track history